sensor_id;sensor_type;location;lat;lon;timestamp;temperature;humidity
23122;DHT22;11730;51.248;22.534;2023-11-21T00:02:21;1.50;1.00
23122;DHT22;11730;51.248;22.534;2023-11-21T00:04:49;1.50;1.00
23122;DHT22;11730;51.248;22.534;2023-11-21T00:07:16;1.50;1.00
23122;DHT22;11730;51.248;22.534;2023-11-21T00:09:43;1.30;1.00
23122;DHT22;11730;51.248;22.534;2023-11-21T00:12:10;1.40;1.00
23122;DHT22;11730;51.248;22.534;2023-11-21T00:14:37;1.20;1.00
23122;DHT22;11730;51.248;22.534;2023-11-21T00:17:05;1.30;1.00
23122;DHT22;11730;51.248;22.534;2023-11-21T00:19:33;1.30;1.00
23122;DHT22;11730;51.248;22.534;2023-11-21T00:22:01;1.40;1.00
23122;DHT22;11730;51.248;22.534;2023-11-21T00:24:28;1.40;1.00
23122;DHT22;11730;51.248;22.534;2023-11-21T00:26:55;1.50;1.00
23122;DHT22;11730;51.248;22.534;2023-11-21T00:29:22;1.30;1.00
23122;DHT22;11730;51.248;22.534;2023-11-21T00:31:49;1.30;1.00
23122;DHT22;11730;51.248;22.534;2023-11-21T00:34:16;1.20;1.00
23122;DHT22;11730;51.248;22.534;2023-11-21T00:36:43;1.30;1.00
23122;DHT22;11730;51.248;22.534;2023-11-21T00:39:10;1.20;1.00
23122;DHT22;11730;51.248;22.534;2023-11-21T00:41:38;1.20;1.00
23122;DHT22;11730;51.248;22.534;2023-11-21T00:44:05;1.20;1.00
23122;DHT22;11730;51.248;22.534;2023-11-21T00:46:33;1.00;1.00
23122;DHT22;11730;51.248;22.534;2023-11-21T00:49:00;1.10;1.00
23122;DHT22;11730;51.248;22.534;2023-11-21T00:51:27;1.20;1.00
23122;DHT22;11730;51.248;22.534;2023-11-21T00:53:54;1.10;1.00
23122;DHT22;11730;51.248;22.534;2023-11-21T00:56:21;-0.30;1.00
23122;DHT22;11730;51.248;22.534;2023-11-21T00:58:49;1.10;1.00
23122;DHT22;11730;51.248;22.534;2023-11-21T01:01:20;1.10;1.00
23122;DHT22;11730;51.248;22.534;2023-11-21T01:03:48;1.20;1.00
23122;DHT22;11730;51.248;22.534;2023-11-21T01:06:15;1.20;1.00
23122;DHT22;11730;51.248;22.534;2023-11-21T01:08:44;1.00;1.00
23122;DHT22;11730;51.248;22.534;2023-11-21T01:11:11;1.10;1.00
23122;DHT22;11730;51.248;22.534;2023-11-21T01:13:42;1.20;1.00
23122;DHT22;11730;51.248;22.534;2023-11-21T01:16:09;1.10;1.00
23122;DHT22;11730;51.248;22.534;2023-11-21T01:18:36;1.10;1.00
23122;DHT22;11730;51.248;22.534;2023-11-21T01:21:03;1.00;1.00
23122;DHT22;11730;51.248;22.534;2023-11-21T01:23:31;1.10;1.00
23122;DHT22;11730;51.248;22.534;2023-11-21T01:25:58;1.20;1.00
23122;DHT22;11730;51.248;22.534;2023-11-21T01:28:25;1.30;1.00
23122;DHT22;11730;51.248;22.534;2023-11-21T01:30:53;1.30;1.00
23122;DHT22;11730;51.248;22.534;2023-11-21T01:53:12;0.90;1.00
23122;DHT22;11730;51.248;22.534;2023-11-21T01:55:41;1.10;1.00
23122;DHT22;11730;51.248;22.534;2023-11-21T01:58:09;1.10;1.00
23122;DHT22;11730;51.248;22.534;2023-11-21T02:08:01;1.00;1.00
23122;DHT22;11730;51.248;22.534;2023-11-21T02:10:30;1.10;1.00
23122;DHT22;11730;51.248;22.534;2023-11-21T02:15:26;1.20;1.00
23122;DHT22;11730;51.248;22.534;2023-11-21T02:22:56;0.80;1.00
23122;DHT22;11730;51.248;22.534;2023-11-21T02:25:29;1.00;1.00
23122;DHT22;11730;51.248;22.534;2023-11-21T02:27:58;1.20;1.00
23122;DHT22;11730;51.248;22.534;2023-11-21T02:30:26;1.20;1.00
23122;DHT22;11730;51.248;22.534;2023-11-21T02:32:55;0.90;1.00
23122;DHT22;11730;51.248;22.534;2023-11-21T02:42:51;1.00;1.00
23122;DHT22;11730;51.248;22.534;2023-11-21T02:45:20;1.10;1.00
23122;DHT22;11730;51.248;22.534;2023-11-21T02:55:13;0.80;1.00
23122;DHT22;11730;51.248;22.534;2023-11-21T03:00:08;0.90;1.00
23122;DHT22;11730;51.248;22.534;2023-11-21T03:05:07;1.00;1.00
23122;DHT22;11730;51.248;22.534;2023-11-21T03:07:39;0.80;1.00
23122;DHT22;11730;51.248;22.534;2023-11-21T03:10:08;0.80;1.00
23122;DHT22;11730;51.248;22.534;2023-11-21T03:15:06;0.90;1.00
23122;DHT22;11730;51.248;22.534;2023-11-21T03:20:01;0.90;1.00
23122;DHT22;11730;51.248;22.534;2023-11-21T03:22:29;1.00;1.00
23122;DHT22;11730;51.248;22.534;2023-11-21T03:29:51;0.80;1.00
23122;DHT22;11730;51.248;22.534;2023-11-21T03:34:58;0.80;1.00
23122;DHT22;11730;51.248;22.534;2023-11-21T03:37:26;0.80;1.00
23122;DHT22;11730;51.248;22.534;2023-11-21T03:39:55;0.70;1.00
23122;DHT22;11730;51.248;22.534;2023-11-21T03:44:54;0.70;1.00
23122;DHT22;11730;51.248;22.534;2023-11-21T03:54:45;0.90;1.00
23122;DHT22;11730;51.248;22.534;2023-11-21T03:57:13;0.90;1.00
23122;DHT22;11730;51.248;22.534;2023-11-21T03:59:40;0.80;1.00
23122;DHT22;11730;51.248;22.534;2023-11-21T04:04:36;0.90;1.00
23122;DHT22;11730;51.248;22.534;2023-11-21T04:26:46;0.90;1.00
23122;DHT22;11730;51.248;22.534;2023-11-21T04:29:13;0.90;1.00
23122;DHT22;11730;51.248;22.534;2023-11-21T04:34:08;1.10;1.00
23122;DHT22;11730;51.248;22.534;2023-11-21T04:39:02;0.90;1.00
23122;DHT22;11730;51.248;22.534;2023-11-21T04:58:45;0.80;1.00
23122;DHT22;11730;51.248;22.534;2023-11-21T05:06:09;0.80;1.00
23122;DHT22;11730;51.248;22.534;2023-11-21T05:11:04;0.70;1.00
23122;DHT22;11730;51.248;22.534;2023-11-21T05:13:34;0.80;1.00
23122;DHT22;11730;51.248;22.534;2023-11-21T05:16:02;0.90;1.00
23122;DHT22;11730;51.248;22.534;2023-11-21T05:18:33;0.80;1.00
23122;DHT22;11730;51.248;22.534;2023-11-21T05:21:01;0.80;1.00
23122;DHT22;11730;51.248;22.534;2023-11-21T05:25:56;0.80;1.00
23122;DHT22;11730;51.248;22.534;2023-11-21T05:36:07;0.80;1.00
23122;DHT22;11730;51.248;22.534;2023-11-21T05:38:35;0.80;1.00
23122;DHT22;11730;51.248;22.534;2023-11-21T05:41:03;0.90;1.00
23122;DHT22;11730;51.248;22.534;2023-11-21T05:53:21;0.80;1.00
23122;DHT22;11730;51.248;22.534;2023-11-21T05:55:48;0.80;1.00
23122;DHT22;11730;51.248;22.534;2023-11-21T06:10:34;0.70;1.00
23122;DHT22;11730;51.248;22.534;2023-11-21T06:15:30;0.70;1.00
23122;DHT22;11730;51.248;22.534;2023-11-21T06:25:20;0.70;1.00
23122;DHT22;11730;51.248;22.534;2023-11-21T06:27:48;0.70;1.00
23122;DHT22;11730;51.248;22.534;2023-11-21T06:32:43;0.70;1.00
23122;DHT22;11730;51.248;22.534;2023-11-21T06:37:44;0.70;1.00
23122;DHT22;11730;51.248;22.534;2023-11-21T06:40:17;0.80;1.00
23122;DHT22;11730;51.248;22.534;2023-11-21T06:47:44;0.70;1.00
23122;DHT22;11730;51.248;22.534;2023-11-21T06:57:37;1.00;1.00
23122;DHT22;11730;51.248;22.534;2023-11-21T07:00:05;1.00;1.00
23122;DHT22;11730;51.248;22.534;2023-11-21T07:02:36;1.00;1.00
23122;DHT22;11730;51.248;22.534;2023-11-21T07:10:01;0.70;1.00
23122;DHT22;11730;51.248;22.534;2023-11-21T07:12:30;1.00;1.00
23122;DHT22;11730;51.248;22.534;2023-11-21T07:17:29;0.90;1.00
23122;DHT22;11730;51.248;22.534;2023-11-21T07:19:56;0.80;1.00
23122;DHT22;11730;51.248;22.534;2023-11-21T07:22:23;0.90;1.00
23122;DHT22;11730;51.248;22.534;2023-11-21T07:24:50;0.80;1.00
23122;DHT22;11730;51.248;22.534;2023-11-21T07:32:15;1.00;1.00
23122;DHT22;11730;51.248;22.534;2023-11-21T07:34:42;1.00;1.00
23122;DHT22;11730;51.248;22.534;2023-11-21T07:44:37;0.80;1.00
23122;DHT22;11730;51.248;22.534;2023-11-21T07:54:27;0.90;1.00
23122;DHT22;11730;51.248;22.534;2023-11-21T07:56:54;1.00;1.00
23122;DHT22;11730;51.248;22.534;2023-11-21T07:59:21;1.10;1.00
23122;DHT22;11730;51.248;22.534;2023-11-21T08:01:48;1.00;1.00
23122;DHT22;11730;51.248;22.534;2023-11-21T08:04:15;1.00;1.00
23122;DHT22;11730;51.248;22.534;2023-11-21T08:06:42;1.00;1.00
23122;DHT22;11730;51.248;22.534;2023-11-21T08:09:09;1.10;1.00
23122;DHT22;11730;51.248;22.534;2023-11-21T08:16:33;1.20;1.00
23122;DHT22;11730;51.248;22.534;2023-11-21T08:19:00;1.10;1.00
23122;DHT22;11730;51.248;22.534;2023-11-21T08:21:27;1.10;1.00
23122;DHT22;11730;51.248;22.534;2023-11-21T08:23:56;0.90;1.00
23122;DHT22;11730;51.248;22.534;2023-11-21T08:26:23;1.00;1.00
23122;DHT22;11730;51.248;22.534;2023-11-21T08:31:25;1.20;1.00
23122;DHT22;11730;51.248;22.534;2023-11-21T08:36:22;1.00;1.00
23122;DHT22;11730;51.248;22.534;2023-11-21T08:38:52;1.00;1.00
23122;DHT22;11730;51.248;22.534;2023-11-21T08:43:51;1.20;1.00
23122;DHT22;11730;51.248;22.534;2023-11-21T08:46:19;1.00;1.00
23122;DHT22;11730;51.248;22.534;2023-11-21T08:53:43;1.00;1.00
23122;DHT22;11730;51.248;22.534;2023-11-21T08:56:13;0.60;1.00
23122;DHT22;11730;51.248;22.534;2023-11-21T08:58:43;1.00;1.00
23122;DHT22;11730;51.248;22.534;2023-11-21T09:01:10;0.90;1.00
23122;DHT22;11730;51.248;22.534;2023-11-21T09:03:39;0.70;1.00
23122;DHT22;11730;51.248;22.534;2023-11-21T09:06:06;0.70;1.00
23122;DHT22;11730;51.248;22.534;2023-11-21T09:08:36;0.60;1.00
23122;DHT22;11730;51.248;22.534;2023-11-21T09:11:03;0.80;1.00
23122;DHT22;11730;51.248;22.534;2023-11-21T09:13:30;0.70;1.00
23122;DHT22;11730;51.248;22.534;2023-11-21T09:18:25;0.70;1.00
23122;DHT22;11730;51.248;22.534;2023-11-21T09:20:52;0.80;1.00
23122;DHT22;11730;51.248;22.534;2023-11-21T09:23:19;0.90;1.00
23122;DHT22;11730;51.248;22.534;2023-11-21T09:25:46;0.90;1.00
23122;DHT22;11730;51.248;22.534;2023-11-21T09:28:16;0.90;1.00
23122;DHT22;11730;51.248;22.534;2023-11-21T09:30:44;1.10;1.00
23122;DHT22;11730;51.248;22.534;2023-11-21T09:33:11;1.10;1.00
23122;DHT22;11730;51.248;22.534;2023-11-21T09:35:38;1.00;1.00
23122;DHT22;11730;51.248;22.534;2023-11-21T09:38:05;1.00;1.00
23122;DHT22;11730;51.248;22.534;2023-11-21T09:40:37;1.00;1.00
23122;DHT22;11730;51.248;22.534;2023-11-21T09:43:17;0.90;1.00
23122;DHT22;11730;51.248;22.534;2023-11-21T09:45:59;1.10;1.00
23122;DHT22;11730;51.248;22.534;2023-11-21T09:48:29;1.20;1.00
23122;DHT22;11730;51.248;22.534;2023-11-21T09:50:58;1.20;1.00
23122;DHT22;11730;51.248;22.534;2023-11-21T09:53:28;1.30;1.00
23122;DHT22;11730;51.248;22.534;2023-11-21T09:55:56;1.30;1.00
23122;DHT22;11730;51.248;22.534;2023-11-21T09:58:24;1.00;1.00
23122;DHT22;11730;51.248;22.534;2023-11-21T10:00:53;1.10;1.00
23122;DHT22;11730;51.248;22.534;2023-11-21T10:03:20;1.10;1.00
23122;DHT22;11730;51.248;22.534;2023-11-21T10:05:50;1.00;1.00
23122;DHT22;11730;51.248;22.534;2023-11-21T10:08:17;1.20;1.00
23122;DHT22;11730;51.248;22.534;2023-11-21T10:10:50;1.00;1.00
23122;DHT22;11730;51.248;22.534;2023-11-21T10:13:18;1.20;1.00
23122;DHT22;11730;51.248;22.534;2023-11-21T10:15:50;1.20;1.00
23122;DHT22;11730;51.248;22.534;2023-11-21T10:18:18;1.30;1.00
23122;DHT22;11730;51.248;22.534;2023-11-21T10:20:45;1.30;1.00
23122;DHT22;11730;51.248;22.534;2023-11-21T10:23:21;1.40;1.00
23122;DHT22;11730;51.248;22.534;2023-11-21T10:25:51;1.20;1.00
23122;DHT22;11730;51.248;22.534;2023-11-21T10:28:19;1.40;1.00
23122;DHT22;11730;51.248;22.534;2023-11-21T10:30:48;1.40;1.00
23122;DHT22;11730;51.248;22.534;2023-11-21T10:33:15;1.40;1.00
23122;DHT22;11730;51.248;22.534;2023-11-21T10:35:46;1.40;1.00
23122;DHT22;11730;51.248;22.534;2023-11-21T10:38:22;1.50;1.00
23122;DHT22;11730;51.248;22.534;2023-11-21T10:40:51;1.50;1.00
23122;DHT22;11730;51.248;22.534;2023-11-21T10:43:19;1.60;1.00
23122;DHT22;11730;51.248;22.534;2023-11-21T10:45:46;1.40;1.00
23122;DHT22;11730;51.248;22.534;2023-11-21T10:48:15;1.40;1.00
23122;DHT22;11730;51.248;22.534;2023-11-21T10:50:44;1.10;1.00
23122;DHT22;11730;51.248;22.534;2023-11-21T10:53:12;1.20;1.00
23122;DHT22;11730;51.248;22.534;2023-11-21T10:55:40;1.20;1.00
23122;DHT22;11730;51.248;22.534;2023-11-21T10:58:08;1.10;1.00
23122;DHT22;11730;51.248;22.534;2023-11-21T11:00:38;1.30;1.00
23122;DHT22;11730;51.248;22.534;2023-11-21T11:03:07;1.40;1.00
23122;DHT22;11730;51.248;22.534;2023-11-21T11:05:44;1.30;1.00
23122;DHT22;11730;51.248;22.534;2023-11-21T11:08:21;1.30;1.00
23122;DHT22;11730;51.248;22.534;2023-11-21T11:10:54;1.50;1.00
23122;DHT22;11730;51.248;22.534;2023-11-21T11:13:21;1.50;1.00
23122;DHT22;11730;51.248;22.534;2023-11-21T11:15:50;1.20;1.00
23122;DHT22;11730;51.248;22.534;2023-11-21T11:18:18;1.20;1.00
23122;DHT22;11730;51.248;22.534;2023-11-21T11:20:50;1.20;1.00
23122;DHT22;11730;51.248;22.534;2023-11-21T11:38:22;1.50;1.00
23122;DHT22;11730;51.248;22.534;2023-11-21T11:40:53;1.30;1.00
23122;DHT22;11730;51.248;22.534;2023-11-21T11:43:27;1.30;1.00
23122;DHT22;11730;51.248;22.534;2023-11-21T11:45:57;1.10;1.00
23122;DHT22;11730;51.248;22.534;2023-11-21T11:48:26;1.30;1.00
23122;DHT22;11730;51.248;22.534;2023-11-21T11:51:12;1.30;1.00
23122;DHT22;11730;51.248;22.534;2023-11-21T11:53:42;1.50;1.00
23122;DHT22;11730;51.248;22.534;2023-11-21T11:58:48;1.40;1.00
23122;DHT22;11730;51.248;22.534;2023-11-21T12:01:22;1.40;1.00
23122;DHT22;11730;51.248;22.534;2023-11-21T12:07:01;1.40;1.00
23122;DHT22;11730;51.248;22.534;2023-11-21T12:09:32;1.40;1.00
23122;DHT22;11730;51.248;22.534;2023-11-21T12:11:59;1.30;1.00
23122;DHT22;11730;51.248;22.534;2023-11-21T12:14:26;1.40;1.00
23122;DHT22;11730;51.248;22.534;2023-11-21T12:16:54;1.40;1.00
23122;DHT22;11730;51.248;22.534;2023-11-21T12:19:21;1.20;1.00
23122;DHT22;11730;51.248;22.534;2023-11-21T12:21:48;1.30;1.00
23122;DHT22;11730;51.248;22.534;2023-11-21T12:24:15;1.10;1.00
23122;DHT22;11730;51.248;22.534;2023-11-21T12:26:43;1.10;1.00
23122;DHT22;11730;51.248;22.534;2023-11-21T12:29:11;1.30;1.00
23122;DHT22;11730;51.248;22.534;2023-11-21T12:31:38;1.10;1.00
23122;DHT22;11730;51.248;22.534;2023-11-21T12:34:05;1.10;1.00
23122;DHT22;11730;51.248;22.534;2023-11-21T12:36:34;1.00;1.00
23122;DHT22;11730;51.248;22.534;2023-11-21T12:39:02;1.20;1.00
23122;DHT22;11730;51.248;22.534;2023-11-21T12:41:29;1.30;1.00
23122;DHT22;11730;51.248;22.534;2023-11-21T12:43:57;1.30;1.00
23122;DHT22;11730;51.248;22.534;2023-11-21T12:46:25;1.20;1.00
23122;DHT22;11730;51.248;22.534;2023-11-21T12:48:57;1.40;1.00
23122;DHT22;11730;51.248;22.534;2023-11-21T12:53:52;1.40;1.00
23122;DHT22;11730;51.248;22.534;2023-11-21T12:56:21;1.40;1.00
23122;DHT22;11730;51.248;22.534;2023-11-21T12:58:50;1.20;1.00
23122;DHT22;11730;51.248;22.534;2023-11-21T13:01:25;1.30;1.00
23122;DHT22;11730;51.248;22.534;2023-11-21T13:03:57;1.40;1.00
23122;DHT22;11730;51.248;22.534;2023-11-21T13:06:25;1.30;1.00
23122;DHT22;11730;51.248;22.534;2023-11-21T13:08:54;1.20;1.00
23122;DHT22;11730;51.248;22.534;2023-11-21T13:11:24;1.20;1.00
23122;DHT22;11730;51.248;22.534;2023-11-21T13:13:52;1.40;1.00
23122;DHT22;11730;51.248;22.534;2023-11-21T13:16:20;1.00;1.00
23122;DHT22;11730;51.248;22.534;2023-11-21T13:18:47;0.80;1.00
23122;DHT22;11730;51.248;22.534;2023-11-21T13:21:14;0.90;1.00
23122;DHT22;11730;51.248;22.534;2023-11-21T13:23:42;1.00;1.00
23122;DHT22;11730;51.248;22.534;2023-11-21T13:26:09;0.80;1.00
23122;DHT22;11730;51.248;22.534;2023-11-21T13:28:37;0.60;1.00
23122;DHT22;11730;51.248;22.534;2023-11-21T13:31:06;0.60;1.00
23122;DHT22;11730;51.248;22.534;2023-11-21T13:33:38;0.60;1.00
23122;DHT22;11730;51.248;22.534;2023-11-21T13:36:07;0.70;1.00
23122;DHT22;11730;51.248;22.534;2023-11-21T13:38:38;1.00;1.00
23122;DHT22;11730;51.248;22.534;2023-11-21T13:41:09;0.80;1.00
23122;DHT22;11730;51.248;22.534;2023-11-21T13:43:39;0.80;1.00
23122;DHT22;11730;51.248;22.534;2023-11-21T13:46:06;0.80;1.00
23122;DHT22;11730;51.248;22.534;2023-11-21T13:48:42;0.70;1.00
23122;DHT22;11730;51.248;22.534;2023-11-21T13:51:22;0.80;1.00
23122;DHT22;11730;51.248;22.534;2023-11-21T13:53:58;0.80;1.00
23122;DHT22;11730;51.248;22.534;2023-11-21T13:56:25;0.70;1.00
23122;DHT22;11730;51.248;22.534;2023-11-21T13:58:55;0.60;1.00
23122;DHT22;11730;51.248;22.534;2023-11-21T14:01:26;0.70;1.00
23122;DHT22;11730;51.248;22.534;2023-11-21T14:03:58;0.80;1.00
23122;DHT22;11730;51.248;22.534;2023-11-21T14:06:48;0.80;1.00
23122;DHT22;11730;51.248;22.534;2023-11-21T14:09:20;0.80;1.00
23122;DHT22;11730;51.248;22.534;2023-11-21T14:11:53;0.60;1.00
23122;DHT22;11730;51.248;22.534;2023-11-21T14:14:21;0.70;1.00
23122;DHT22;11730;51.248;22.534;2023-11-21T14:16:48;0.70;1.00
23122;DHT22;11730;51.248;22.534;2023-11-21T14:19:17;0.80;1.00
23122;DHT22;11730;51.248;22.534;2023-11-21T14:21:45;0.80;1.00
23122;DHT22;11730;51.248;22.534;2023-11-21T14:26:45;0.80;1.00
23122;DHT22;11730;51.248;22.534;2023-11-21T14:29:13;0.90;1.00
23122;DHT22;11730;51.248;22.534;2023-11-21T14:31:47;0.90;1.00
23122;DHT22;11730;51.248;22.534;2023-11-21T14:34:15;1.10;1.00
23122;DHT22;11730;51.248;22.534;2023-11-21T14:36:47;1.20;1.00
23122;DHT22;11730;51.248;22.534;2023-11-21T14:39:13;0.90;1.00
23122;DHT22;11730;51.248;22.534;2023-11-21T14:41:57;0.90;1.00
23122;DHT22;11730;51.248;22.534;2023-11-21T14:44:26;1.00;1.00
23122;DHT22;11730;51.248;22.534;2023-11-21T14:46:56;0.80;1.00
23122;DHT22;11730;51.248;22.534;2023-11-21T14:49:25;0.80;1.00
23122;DHT22;11730;51.248;22.534;2023-11-21T14:51:55;0.50;1.00
23122;DHT22;11730;51.248;22.534;2023-11-21T14:54:31;0.50;1.00
23122;DHT22;11730;51.248;22.534;2023-11-21T14:57:11;0.40;1.00
23122;DHT22;11730;51.248;22.534;2023-11-21T14:59:44;0.50;1.00
23122;DHT22;11730;51.248;22.534;2023-11-21T15:02:18;0.50;1.00
23122;DHT22;11730;51.248;22.534;2023-11-21T15:05:04;0.60;1.00
23122;DHT22;11730;51.248;22.534;2023-11-21T15:07:32;0.60;1.00
23122;DHT22;11730;51.248;22.534;2023-11-21T15:09:59;0.50;1.00
23122;DHT22;11730;51.248;22.534;2023-11-21T15:12:26;0.70;1.00
23122;DHT22;11730;51.248;22.534;2023-11-21T15:14:59;0.60;1.00
23122;DHT22;11730;51.248;22.534;2023-11-21T15:17:26;0.70;1.00
23122;DHT22;11730;51.248;22.534;2023-11-21T15:22:22;0.60;1.00
23122;DHT22;11730;51.248;22.534;2023-11-21T15:24:49;0.80;1.00
23122;DHT22;11730;51.248;22.534;2023-11-21T15:27:17;0.90;1.00
23122;DHT22;11730;51.248;22.534;2023-11-21T15:29:44;0.60;1.00
23122;DHT22;11730;51.248;22.534;2023-11-21T15:32:11;0.70;1.00
23122;DHT22;11730;51.248;22.534;2023-11-21T15:34:39;0.80;1.00
23122;DHT22;11730;51.248;22.534;2023-11-21T15:37:07;0.60;1.00
23122;DHT22;11730;51.248;22.534;2023-11-21T15:39:38;0.40;1.00
23122;DHT22;11730;51.248;22.534;2023-11-21T15:42:06;0.30;1.00
23122;DHT22;11730;51.248;22.534;2023-11-21T15:44:37;0.40;1.00
23122;DHT22;11730;51.248;22.534;2023-11-21T15:47:04;0.30;1.00
23122;DHT22;11730;51.248;22.534;2023-11-21T15:49:33;0.40;1.00
23122;DHT22;11730;51.248;22.534;2023-11-21T15:52:06;0.50;1.00
23122;DHT22;11730;51.248;22.534;2023-11-21T15:54:35;0.40;1.00
23122;DHT22;11730;51.248;22.534;2023-11-21T15:57:03;0.40;1.00
23122;DHT22;11730;51.248;22.534;2023-11-21T15:59:31;0.50;1.00
23122;DHT22;11730;51.248;22.534;2023-11-21T16:02:00;0.50;1.00
23122;DHT22;11730;51.248;22.534;2023-11-21T16:04:28;0.50;1.00
23122;DHT22;11730;51.248;22.534;2023-11-21T16:06:55;0.40;1.00
23122;DHT22;11730;51.248;22.534;2023-11-21T16:09:22;0.50;1.00
23122;DHT22;11730;51.248;22.534;2023-11-21T16:12:01;0.30;1.00
23122;DHT22;11730;51.248;22.534;2023-11-21T16:14:35;0.30;1.00
23122;DHT22;11730;51.248;22.534;2023-11-21T16:17:08;0.40;1.00
23122;DHT22;11730;51.248;22.534;2023-11-21T16:19:37;0.30;1.00
23122;DHT22;11730;51.248;22.534;2023-11-21T16:22:04;0.30;1.00
23122;DHT22;11730;51.248;22.534;2023-11-21T16:24:33;0.50;1.00
23122;DHT22;11730;51.248;22.534;2023-11-21T16:27:00;0.20;1.00
23122;DHT22;11730;51.248;22.534;2023-11-21T16:29:29;0.30;1.00
23122;DHT22;11730;51.248;22.534;2023-11-21T16:31:57;0.40;1.00
23122;DHT22;11730;51.248;22.534;2023-11-21T16:34:25;0.20;1.00
23122;DHT22;11730;51.248;22.534;2023-11-21T16:36:52;0.30;1.00
23122;DHT22;11730;51.248;22.534;2023-11-21T16:39:19;0.30;1.00
23122;DHT22;11730;51.248;22.534;2023-11-21T16:41:49;0.40;1.00
23122;DHT22;11730;51.248;22.534;2023-11-21T16:44:20;0.20;1.00
23122;DHT22;11730;51.248;22.534;2023-11-21T16:46:49;0.20;1.00
23122;DHT22;11730;51.248;22.534;2023-11-21T16:49:32;0.20;1.00
23122;DHT22;11730;51.248;22.534;2023-11-21T16:52:00;0.40;1.00
23122;DHT22;11730;51.248;22.534;2023-11-21T16:54:29;0.40;1.00
23122;DHT22;11730;51.248;22.534;2023-11-21T16:56:56;0.70;1.00
23122;DHT22;11730;51.248;22.534;2023-11-21T16:59:23;0.60;1.00
23122;DHT22;11730;51.248;22.534;2023-11-21T17:01:51;0.40;1.00
23122;DHT22;11730;51.248;22.534;2023-11-21T17:04:18;0.50;1.00
23122;DHT22;11730;51.248;22.534;2023-11-21T17:06:46;0.40;1.00
23122;DHT22;11730;51.248;22.534;2023-11-21T17:09:16;0.60;1.00
23122;DHT22;11730;51.248;22.534;2023-11-21T17:11:50;0.20;1.00
23122;DHT22;11730;51.248;22.534;2023-11-21T17:14:18;0.20;1.00
23122;DHT22;11730;51.248;22.534;2023-11-21T17:16:46;0.20;1.00
23122;DHT22;11730;51.248;22.534;2023-11-21T17:19:15;0.20;1.00
23122;DHT22;11730;51.248;22.534;2023-11-21T17:21:42;0.20;1.00
23122;DHT22;11730;51.248;22.534;2023-11-21T17:24:12;0.20;1.00
23122;DHT22;11730;51.248;22.534;2023-11-21T17:26:43;0.00;1.00
23122;DHT22;11730;51.248;22.534;2023-11-21T17:29:10;-0.20;1.00
23122;DHT22;11730;51.248;22.534;2023-11-21T17:31:37;0.10;1.00
23122;DHT22;11730;51.248;22.534;2023-11-21T17:34:05;0.10;1.00
23122;DHT22;11730;51.248;22.534;2023-11-21T17:36:32;0.00;1.00
23122;DHT22;11730;51.248;22.534;2023-11-21T17:38:59;0.20;1.00
23122;DHT22;11730;51.248;22.534;2023-11-21T17:41:26;0.20;1.00
23122;DHT22;11730;51.248;22.534;2023-11-21T17:43:53;-0.10;1.00
23122;DHT22;11730;51.248;22.534;2023-11-21T17:46:21;-0.10;1.00
23122;DHT22;11730;51.248;22.534;2023-11-21T17:48:49;0.10;1.00
23122;DHT22;11730;51.248;22.534;2023-11-21T17:51:19;-0.30;1.00
23122;DHT22;11730;51.248;22.534;2023-11-21T17:53:46;-0.30;1.00
23122;DHT22;11730;51.248;22.534;2023-11-21T17:56:14;-0.20;1.00
23122;DHT22;11730;51.248;22.534;2023-11-21T17:58:43;-0.30;1.00
23122;DHT22;11730;51.248;22.534;2023-11-21T18:01:10;-0.20;1.00
23122;DHT22;11730;51.248;22.534;2023-11-21T18:03:37;-0.20;1.00
23122;DHT22;11730;51.248;22.534;2023-11-21T18:06:05;-0.30;1.00
23122;DHT22;11730;51.248;22.534;2023-11-21T18:08:32;-0.20;1.00
23122;DHT22;11730;51.248;22.534;2023-11-21T18:10:59;-0.20;1.00
23122;DHT22;11730;51.248;22.534;2023-11-21T18:13:26;-0.10;1.00
23122;DHT22;11730;51.248;22.534;2023-11-21T18:15:53;0.00;1.00
23122;DHT22;11730;51.248;22.534;2023-11-21T18:18:21;0.00;1.00
23122;DHT22;11730;51.248;22.534;2023-11-21T18:20:48;-0.30;1.00
23122;DHT22;11730;51.248;22.534;2023-11-21T18:23:15;-0.30;1.00
23122;DHT22;11730;51.248;22.534;2023-11-21T18:25:42;-0.10;1.00
23122;DHT22;11730;51.248;22.534;2023-11-21T18:28:10;-0.10;1.00
23122;DHT22;11730;51.248;22.534;2023-11-21T18:30:37;-0.20;1.00
23122;DHT22;11730;51.248;22.534;2023-11-21T18:33:04;-0.10;1.00
23122;DHT22;11730;51.248;22.534;2023-11-21T18:35:31;-0.10;1.00
23122;DHT22;11730;51.248;22.534;2023-11-21T18:40:26;-0.20;1.00
23122;DHT22;11730;51.248;22.534;2023-11-21T18:42:53;-0.10;1.00
23122;DHT22;11730;51.248;22.534;2023-11-21T18:45:21;-0.40;1.00
23122;DHT22;11730;51.248;22.534;2023-11-21T18:47:47;-0.40;1.00
23122;DHT22;11730;51.248;22.534;2023-11-21T18:50:15;-0.40;1.00
23122;DHT22;11730;51.248;22.534;2023-11-21T18:52:48;-0.40;1.00
23122;DHT22;11730;51.248;22.534;2023-11-21T18:55:16;-0.40;1.00
23122;DHT22;11730;51.248;22.534;2023-11-21T18:57:43;-0.10;1.00
23122;DHT22;11730;51.248;22.534;2023-11-21T19:00:10;-0.40;1.00
23122;DHT22;11730;51.248;22.534;2023-11-21T19:02:39;-0.30;1.00
23122;DHT22;11730;51.248;22.534;2023-11-21T19:05:07;-0.60;1.00
23122;DHT22;11730;51.248;22.534;2023-11-21T19:07:35;-0.70;1.00
23122;DHT22;11730;51.248;22.534;2023-11-21T19:10:06;-0.50;1.00
23122;DHT22;11730;51.248;22.534;2023-11-21T19:12:33;-0.80;1.00
23122;DHT22;11730;51.248;22.534;2023-11-21T19:15:03;-0.80;1.00
23122;DHT22;11730;51.248;22.534;2023-11-21T19:17:30;-0.60;1.00
23122;DHT22;11730;51.248;22.534;2023-11-21T19:19:59;-0.50;1.00
23122;DHT22;11730;51.248;22.534;2023-11-21T19:22:26;-0.40;1.00
23122;DHT22;11730;51.248;22.534;2023-11-21T19:24:54;-0.40;1.00
23122;DHT22;11730;51.248;22.534;2023-11-21T19:27:20;-0.50;1.00
23122;DHT22;11730;51.248;22.534;2023-11-21T19:29:47;-0.40;1.00
23122;DHT22;11730;51.248;22.534;2023-11-21T19:32:15;-0.10;1.00
23122;DHT22;11730;51.248;22.534;2023-11-21T19:34:42;-0.40;1.00
23122;DHT22;11730;51.248;22.534;2023-11-21T19:37:09;-0.50;1.00
23122;DHT22;11730;51.248;22.534;2023-11-21T19:39:36;-0.50;1.00
23122;DHT22;11730;51.248;22.534;2023-11-21T19:42:03;-0.20;1.00
23122;DHT22;11730;51.248;22.534;2023-11-21T19:44:30;-0.80;1.00
23122;DHT22;11730;51.248;22.534;2023-11-21T19:46:58;-0.70;1.00
23122;DHT22;11730;51.248;22.534;2023-11-21T19:49:26;-0.70;1.00
23122;DHT22;11730;51.248;22.534;2023-11-21T19:51:54;-0.80;1.00
23122;DHT22;11730;51.248;22.534;2023-11-21T19:54:21;-0.80;1.00
23122;DHT22;11730;51.248;22.534;2023-11-21T19:56:48;-0.80;1.00
23122;DHT22;11730;51.248;22.534;2023-11-21T19:59:15;-0.70;1.00
23122;DHT22;11730;51.248;22.534;2023-11-21T20:01:44;-0.70;1.00
23122;DHT22;11730;51.248;22.534;2023-11-21T20:04:11;1.10;1.00
23122;DHT22;11730;51.248;22.534;2023-11-21T20:06:39;-0.60;1.00
23122;DHT22;11730;51.248;22.534;2023-11-21T20:09:16;-0.80;1.00
23122;DHT22;11730;51.248;22.534;2023-11-21T20:11:43;-0.90;1.00
23122;DHT22;11730;51.248;22.534;2023-11-21T20:14:13;-0.90;1.00
23122;DHT22;11730;51.248;22.534;2023-11-21T20:16:40;-1.00;1.00
23122;DHT22;11730;51.248;22.534;2023-11-21T20:19:08;-0.80;1.00